TimePST,TemperatureF,Dew PointF,Humidity,Sea Level PressureIn,VisibilityMPH,Wind Direction,Wind SpeedMPH,Gust SpeedMPH,PrecipitationIn,Events,Conditions,WindDirDegrees,DateUTC
12:15 AM,30.2,8.6,40,30.17,10.0,NW,5.8,-,N/A,,Clear,320,2013-01-03 08:15:00
12:35 AM,28.4,10.4,47,30.17,10.0,NNW,5.8,-,N/A,,Clear,330,2013-01-03 08:35:00
12:50 AM,28.4,10.4,47,30.18,10.0,NW,5.8,-,N/A,,Clear,310,2013-01-03 08:50:00
1:15 AM,28.4,10.4,47,30.18,10.0,NNW,8.1,-,N/A,,Clear,330,2013-01-03 09:15:00
1:35 AM,30.2,10.4,44,30.18,10.0,NNW,9.2,-,N/A,,Clear,330,2013-01-03 09:35:00
1:55 AM,30.2,10.4,44,30.17,10.0,North,-9999.0,-,N/A,,Clear,0,2013-01-03 09:55:00
2:15 AM,32.0,10.4,41,30.17,10.0,NW,9.2,-,N/A,,Clear,320,2013-01-03 10:15:00
2:35 AM,32.0,10.4,41,30.17,10.0,NNW,9.2,-,N/A,,Clear,330,2013-01-03 10:35:00
2:55 AM,32.0,10.4,41,30.17,10.0,NNW,6.9,-,N/A,,Clear,330,2013-01-03 10:55:00
3:15 AM,30.2,10.4,44,30.16,10.0,NNW,8.1,-,N/A,,Clear,330,2013-01-03 11:15:00
3:35 AM,32.0,8.6,38,30.16,10.0,Calm,Calm,-,N/A,,Clear,0,2013-01-03 11:35:00
3:55 AM,32.0,8.6,38,30.16,10.0,Calm,Calm,-,N/A,,Clear,0,2013-01-03 11:55:00
4:15 AM,30.2,8.6,40,30.17,10.0,Calm,Calm,-,N/A,,Clear,0,2013-01-03 12:15:00
4:35 AM,30.2,8.6,40,30.17,10.0,Calm,Calm,-,N/A,,Clear,0,2013-01-03 12:35:00
5:15 AM,26.6,6.8,43,30.20,10.0,West,4.6,-,N/A,,Clear,260,2013-01-03 13:15:00
5:35 AM,26.6,6.8,43,30.21,10.0,Calm,Calm,-,N/A,,Clear,0,2013-01-03 13:35:00
5:50 AM,26.6,6.8,43,30.20,10.0,Calm,Calm,-,N/A,,Clear,0,2013-01-03 13:50:00
6:15 AM,24.8,8.6,50,30.21,10.0,Calm,Calm,-,N/A,,Clear,0,2013-01-03 14:15:00
6:30 AM,24.8,8.6,50,30.21,10.0,Calm,Calm,-,N/A,,Clear,0,2013-01-03 14:30:00
6:55 AM,26.6,8.6,47,30.21,9.0,NNW,8.1,-,N/A,,Clear,340,2013-01-03 14:55:00
7:15 AM,28.4,8.6,43,30.22,9.0,NNW,9.2,-,N/A,,Clear,330,2013-01-03 15:15:00
7:35 AM,32.0,8.6,38,30.23,10.0,NNW,8.1,-,N/A,,Clear,330,2013-01-03 15:35:00
7:55 AM,33.8,10.4,38,30.24,10.0,Calm,Calm,-,N/A,,Clear,0,2013-01-03 15:55:00
8:15 AM,37.4,10.4,33,30.25,10.0,Calm,Calm,-,N/A,,Clear,0,2013-01-03 16:15:00
8:35 AM,39.2,8.6,28,30.26,10.0,Calm,Calm,-,N/A,,Clear,0,2013-01-03 16:35:00
8:55 AM,42.8,10.4,27,30.27,10.0,Calm,Calm,-,N/A,,Clear,0,2013-01-03 16:55:00
9:15 AM,44.6,8.6,23,30.28,10.0,Calm,Calm,-,N/A,,Clear,0,2013-01-03 17:15:00
9:35 AM,44.6,8.6,23,30.29,10.0,Calm,Calm,-,N/A,,Clear,0,2013-01-03 17:35:00
9:55 AM,46.4,8.6,22,30.30,10.0,East,3.5,-,N/A,,Clear,80,2013-01-03 17:55:00
10:15 AM,46.4,8.6,22,30.30,10.0,East,5.8,-,N/A,,Clear,100,2013-01-03 18:15:00
10:35 AM,46.4,8.6,22,30.29,10.0,ENE,3.5,-,N/A,,Clear,60,2013-01-03 18:35:00
10:55 AM,46.4,8.6,22,30.28,10.0,ENE,8.1,-,N/A,,Clear,70,2013-01-03 18:55:00
11:15 AM,48.2,8.6,20,30.27,10.0,ENE,8.1,-,N/A,,Clear,60,2013-01-03 19:15:00
11:35 AM,48.2,8.6,20,30.26,10.0,ENE,8.1,-,N/A,,Clear,60,2013-01-03 19:35:00
11:55 AM,48.2,8.6,20,30.25,10.0,East,10.4,-,N/A,,Clear,80,2013-01-03 19:55:00
12:15 PM,50.0,8.6,19,30.24,10.0,ENE,9.2,-,N/A,,Clear,60,2013-01-03 20:15:00
12:35 PM,50.0,8.6,19,30.24,10.0,NNE,8.1,-,N/A,,Clear,30,2013-01-03 20:35:00
12:55 PM,50.0,8.6,19,30.23,10.0,NE,9.2,-,N/A,,Clear,50,2013-01-03 20:55:00
1:15 PM,50.0,6.8,17,30.23,10.0,NE,9.2,-,N/A,,Clear,50,2013-01-03 21:15:00
1:35 PM,51.8,6.8,16,30.22,10.0,NE,8.1,-,N/A,,Clear,50,2013-01-03 21:35:00
1:55 PM,53.6,6.8,15,30.21,10.0,NE,11.5,17.3,N/A,,Clear,40,2013-01-03 21:55:00
2:15 PM,53.6,6.8,15,30.21,10.0,NE,10.4,-,N/A,,Clear,50,2013-01-03 22:15:00
2:55 PM,51.8,6.8,16,30.22,10.0,ENE,6.9,-,N/A,,Clear,60,2013-01-03 22:55:00
3:15 PM,53.6,6.8,15,30.21,10.0,NE,5.8,-,N/A,,Clear,40,2013-01-03 23:15:00
3:35 PM,51.8,6.8,16,30.21,10.0,ENE,5.8,-,N/A,,Clear,60,2013-01-03 23:35:00
3:55 PM,51.8,6.8,16,30.22,10.0,ENE,5.8,-,N/A,,Clear,70,2013-01-03 23:55:00
4:15 PM,51.8,6.8,16,30.22,10.0,Calm,Calm,-,N/A,,Clear,0,2013-01-04 00:15:00
4:35 PM,50.0,6.8,17,30.22,10.0,Calm,Calm,-,N/A,,Clear,0,2013-01-04 00:35:00
4:55 PM,48.2,6.8,19,30.22,10.0,Calm,Calm,-,N/A,,Clear,0,2013-01-04 00:55:00
5:15 PM,48.2,6.8,19,30.23,10.0,Calm,Calm,-,N/A,,Clear,0,2013-01-04 01:15:00
5:30 PM,44.6,6.8,21,30.23,10.0,Calm,Calm,-,N/A,,Clear,0,2013-01-04 01:30:00
5:55 PM,39.2,5.0,24,30.23,10.0,NNW,3.5,-,N/A,,Clear,340,2013-01-04 01:55:00
6:10 PM,37.4,6.8,28,30.24,10.0,NNW,6.9,-,N/A,,Clear,340,2013-01-04 02:10:00
6:35 PM,37.4,6.8,28,30.23,10.0,NNW,8.1,-,N/A,,Clear,330,2013-01-04 02:35:00
6:55 PM,37.4,6.8,28,30.24,10.0,NNW,8.1,-,N/A,,Clear,340,2013-01-04 02:55:00
7:05 PM,37.4,6.8,28,30.24,10.0,North,6.9,-,N/A,,Clear,360,2013-01-04 03:05:00
7:30 PM,35.6,6.8,30,30.25,10.0,NW,6.9,-,N/A,,Clear,320,2013-01-04 03:30:00
7:55 PM,35.6,6.8,30,30.25,10.0,North,9.2,-,N/A,,Clear,350,2013-01-04 03:55:00
8:15 PM,35.6,6.8,30,30.25,10.0,NNW,9.2,-,N/A,,Clear,340,2013-01-04 04:15:00
8:20 PM,35.6,6.8,30,30.25,10.0,NNW,9.2,-,N/A,,Clear,340,2013-01-04 04:20:00
8:40 PM,35.6,5.0,28,30.25,10.0,Calm,Calm,-,N/A,,Clear,0,2013-01-04 04:40:00
9:05 PM,33.8,6.8,32,30.26,10.0,North,6.9,-,N/A,,Clear,350,2013-01-04 05:05:00
9:25 PM,35.6,5.0,28,30.26,10.0,NNE,8.1,-,N/A,,Clear,20,2013-01-04 05:25:00
9:45 PM,32.0,5.0,32,30.27,10.0,North,8.1,-,N/A,,Clear,350,2013-01-04 05:45:00
10:00 PM,32.0,5.0,32,30.27,10.0,North,8.1,-,N/A,,Clear,350,2013-01-04 06:00:00
10:30 PM,32.0,5.0,32,30.27,10.0,NNW,8.1,-,N/A,,Clear,340,2013-01-04 06:30:00
10:45 PM,32.0,6.8,35,30.27,10.0,NNW,8.1,-,N/A,,Clear,340,2013-01-04 06:45:00
11:10 PM,32.0,5.0,32,30.27,10.0,NNW,6.9,-,N/A,,Clear,340,2013-01-04 07:10:00
11:30 PM,32.0,6.8,35,30.27,10.0,NNW,8.1,-,N/A,,Clear,340,2013-01-04 07:30:00
11:55 PM,32.0,6.8,35,30.27,10.0,NNW,9.2,-,N/A,,Clear,330,2013-01-04 07:55:00